sensor_id;sensor_type;location;lat;lon;timestamp;P1;durP1;ratioP1;P2;durP2;ratioP2
22201;SDS011;11266;51.522;6.302;2022-10-18T06:21:37;7.05;;;5.00;;
22201;SDS011;11266;51.522;6.302;2022-10-18T06:22:26;6.65;;;4.03;;
22201;SDS011;11266;51.522;6.302;2022-10-18T06:23:12;6.85;;;4.15;;
22201;SDS011;11266;51.522;6.302;2022-10-18T06:23:58;5.78;;;4.10;;
22201;SDS011;11266;51.522;6.302;2022-10-18T06:24:44;9.52;;;4.72;;
22201;SDS011;11266;51.522;6.302;2022-10-18T06:25:30;5.07;;;4.03;;
22201;SDS011;11266;51.522;6.302;2022-10-18T06:26:16;5.85;;;4.55;;
22201;SDS011;11266;51.522;6.302;2022-10-18T06:27:02;6.53;;;4.88;;
22201;SDS011;11266;51.522;6.302;2022-10-18T06:27:52;6.07;;;4.47;;
22201;SDS011;11266;51.522;6.302;2022-10-18T06:28:38;5.70;;;4.20;;
22201;SDS011;11266;51.522;6.302;2022-10-18T06:29:24;6.22;;;4.55;;
22201;SDS011;11266;51.522;6.302;2022-10-18T06:30:10;5.25;;;3.83;;
22201;SDS011;11266;51.522;6.302;2022-10-18T06:30:56;5.03;;;3.90;;
22201;SDS011;11266;51.522;6.302;2022-10-18T06:31:42;7.80;;;4.13;;
22201;SDS011;11266;51.522;6.302;2022-10-18T06:32:28;5.47;;;3.97;;
22201;SDS011;11266;51.522;6.302;2022-10-18T06:33:14;5.78;;;4.30;;
22201;SDS011;11266;51.522;6.302;2022-10-18T06:34:00;7.38;;;4.15;;
22201;SDS011;11266;51.522;6.302;2022-10-18T06:34:46;5.70;;;4.40;;
22201;SDS011;11266;51.522;6.302;2022-10-18T06:35:32;5.82;;;4.13;;
22201;SDS011;11266;51.522;6.302;2022-10-18T06:36:19;6.30;;;4.20;;
22201;SDS011;11266;51.522;6.302;2022-10-18T06:37:08;5.18;;;4.03;;
22201;SDS011;11266;51.522;6.302;2022-10-18T06:37:57;5.03;;;3.90;;
22201;SDS011;11266;51.522;6.302;2022-10-18T06:38:43;6.20;;;4.35;;
22201;SDS011;11266;51.522;6.302;2022-10-18T06:39:29;5.25;;;4.10;;
22201;SDS011;11266;51.522;6.302;2022-10-18T06:40:15;10.55;;;4.13;;
22201;SDS011;11266;51.522;6.302;2022-10-18T06:41:02;5.38;;;3.88;;
22201;SDS011;11266;51.522;6.302;2022-10-18T06:41:48;6.38;;;4.47;;
22201;SDS011;11266;51.522;6.302;2022-10-18T06:42:34;8.68;;;4.25;;
22201;SDS011;11266;51.522;6.302;2022-10-18T06:43:20;6.57;;;4.63;;
22201;SDS011;11266;51.522;6.302;2022-10-18T06:44:08;8.02;;;5.53;;
22201;SDS011;11266;51.522;6.302;2022-10-18T06:44:58;7.55;;;5.43;;
22201;SDS011;11266;51.522;6.302;2022-10-18T06:45:47;8.00;;;5.55;;
22201;SDS011;11266;51.522;6.302;2022-10-18T06:46:33;7.25;;;5.30;;
22201;SDS011;11266;51.522;6.302;2022-10-18T06:47:22;8.15;;;5.25;;
22201;SDS011;11266;51.522;6.302;2022-10-18T06:48:08;8.80;;;6.00;;
22201;SDS011;11266;51.522;6.302;2022-10-18T06:48:54;9.57;;;6.40;;
22201;SDS011;11266;51.522;6.302;2022-10-18T06:49:41;10.68;;;6.07;;
22201;SDS011;11266;51.522;6.302;2022-10-18T06:50:27;9.52;;;6.10;;
22201;SDS011;11266;51.522;6.302;2022-10-18T06:51:13;9.20;;;6.32;;
22201;SDS011;11266;51.522;6.302;2022-10-18T06:51:59;10.23;;;6.47;;
22201;SDS011;11266;51.522;6.302;2022-10-18T06:52:45;10.05;;;6.57;;
22201;SDS011;11266;51.522;6.302;2022-10-18T06:53:36;9.68;;;6.43;;
22201;SDS011;11266;51.522;6.302;2022-10-18T06:54:23;11.38;;;6.60;;
22201;SDS011;11266;51.522;6.302;2022-10-18T06:55:08;8.60;;;6.10;;
22201;SDS011;11266;51.522;6.302;2022-10-18T06:56:05;12.70;;;7.68;;
22201;SDS011;11266;51.522;6.302;2022-10-18T06:56:54;11.88;;;6.75;;
22201;SDS011;11266;51.522;6.302;2022-10-18T06:57:40;12.93;;;7.28;;
22201;SDS011;11266;51.522;6.302;2022-10-18T06:58:27;12.02;;;8.23;;
22201;SDS011;11266;51.522;6.302;2022-10-18T06:59:13;11.77;;;8.60;;
22201;SDS011;11266;51.522;6.302;2022-10-18T06:59:59;10.95;;;8.05;;
22201;SDS011;11266;51.522;6.302;2022-10-18T07:00:45;11.00;;;6.63;;
22201;SDS011;11266;51.522;6.302;2022-10-18T07:01:31;10.45;;;6.68;;
22201;SDS011;11266;51.522;6.302;2022-10-18T07:02:17;10.25;;;7.75;;
22201;SDS011;11266;51.522;6.302;2022-10-18T07:03:03;14.32;;;8.32;;
22201;SDS011;11266;51.522;6.302;2022-10-18T07:03:51;15.48;;;8.98;;
22201;SDS011;11266;51.522;6.302;2022-10-18T07:04:37;13.63;;;8.57;;
22201;SDS011;11266;51.522;6.302;2022-10-18T07:05:23;14.38;;;8.35;;
22201;SDS011;11266;51.522;6.302;2022-10-18T07:06:10;13.45;;;9.13;;
22201;SDS011;11266;51.522;6.302;2022-10-18T07:06:57;12.43;;;8.77;;
22201;SDS011;11266;51.522;6.302;2022-10-18T07:07:43;14.38;;;9.02;;
22201;SDS011;11266;51.522;6.302;2022-10-18T07:08:29;11.32;;;8.75;;
22201;SDS011;11266;51.522;6.302;2022-10-18T07:09:15;13.88;;;9.38;;
22201;SDS011;11266;51.522;6.302;2022-10-18T07:10:01;14.43;;;9.27;;
22201;SDS011;11266;51.522;6.302;2022-10-18T07:10:50;20.50;;;12.07;;
22201;SDS011;11266;51.522;6.302;2022-10-18T07:11:37;18.05;;;12.18;;
22201;SDS011;11266;51.522;6.302;2022-10-18T07:12:23;11.45;;;8.95;;
22201;SDS011;11266;51.522;6.302;2022-10-18T07:13:09;14.65;;;10.48;;
22201;SDS011;11266;51.522;6.302;2022-10-18T07:13:57;16.05;;;10.10;;
22201;SDS011;11266;51.522;6.302;2022-10-18T07:14:46;19.73;;;9.80;;
22201;SDS011;11266;51.522;6.302;2022-10-18T07:15:32;14.30;;;10.43;;
22201;SDS011;11266;51.522;6.302;2022-10-18T07:16:22;15.02;;;10.90;;
22201;SDS011;11266;51.522;6.302;2022-10-18T07:17:10;16.85;;;12.30;;
22201;SDS011;11266;51.522;6.302;2022-10-18T07:17:56;17.67;;;12.80;;
22201;SDS011;11266;51.522;6.302;2022-10-18T07:18:45;14.38;;;11.23;;
22201;SDS011;11266;51.522;6.302;2022-10-18T07:19:33;14.05;;;9.98;;
22201;SDS011;11266;51.522;6.302;2022-10-18T07:20:19;16.23;;;12.20;;
22201;SDS011;11266;51.522;6.302;2022-10-18T07:21:07;15.60;;;12.02;;
22201;SDS011;11266;51.522;6.302;2022-10-18T07:21:54;15.93;;;11.93;;
22201;SDS011;11266;51.522;6.302;2022-10-18T07:22:40;15.73;;;12.18;;
22201;SDS011;11266;51.522;6.302;2022-10-18T07:23:26;18.17;;;13.40;;
22201;SDS011;11266;51.522;6.302;2022-10-18T07:24:12;15.95;;;11.98;;
22201;SDS011;11266;51.522;6.302;2022-10-18T07:24:58;13.63;;;10.02;;
22201;SDS011;11266;51.522;6.302;2022-10-18T07:25:43;12.95;;;9.65;;
22201;SDS011;11266;51.522;6.302;2022-10-18T07:26:31;14.52;;;10.10;;
22201;SDS011;11266;51.522;6.302;2022-10-18T07:27:17;14.77;;;10.65;;
22201;SDS011;11266;51.522;6.302;2022-10-18T07:28:03;13.05;;;9.38;;
22201;SDS011;11266;51.522;6.302;2022-10-18T07:28:53;14.20;;;10.02;;
22201;SDS011;11266;51.522;6.302;2022-10-18T07:29:39;15.15;;;11.85;;
22201;SDS011;11266;51.522;6.302;2022-10-18T07:30:27;14.05;;;10.90;;
22201;SDS011;11266;51.522;6.302;2022-10-18T07:31:13;14.95;;;10.73;;
22201;SDS011;11266;51.522;6.302;2022-10-18T07:32:02;18.65;;;13.00;;
22201;SDS011;11266;51.522;6.302;2022-10-18T07:32:49;14.77;;;12.05;;
22201;SDS011;11266;51.522;6.302;2022-10-18T07:33:35;16.20;;;11.75;;
22201;SDS011;11266;51.522;6.302;2022-10-18T07:34:24;20.30;;;13.30;;
22201;SDS011;11266;51.522;6.302;2022-10-18T07:35:10;16.83;;;12.40;;
22201;SDS011;11266;51.522;6.302;2022-10-18T07:35:59;13.30;;;10.73;;
22201;SDS011;11266;51.522;6.302;2022-10-18T07:36:46;15.23;;;11.13;;
22201;SDS011;11266;51.522;6.302;2022-10-18T07:37:31;19.52;;;13.77;;
22201;SDS011;11266;51.522;6.302;2022-10-18T07:38:17;16.85;;;12.13;;
22201;SDS011;11266;51.522;6.302;2022-10-18T07:39:07;15.40;;;12.45;;
22201;SDS011;11266;51.522;6.302;2022-10-18T07:39:53;15.30;;;10.95;;
22201;SDS011;11266;51.522;6.302;2022-10-18T07:40:39;16.98;;;12.40;;
22201;SDS011;11266;51.522;6.302;2022-10-18T07:41:25;16.88;;;12.30;;
22201;SDS011;11266;51.522;6.302;2022-10-18T07:42:12;15.48;;;11.50;;
22201;SDS011;11266;51.522;6.302;2022-10-18T07:42:58;14.88;;;11.63;;
22201;SDS011;11266;51.522;6.302;2022-10-18T07:43:45;18.15;;;11.43;;
22201;SDS011;11266;51.522;6.302;2022-10-18T07:44:31;19.00;;;13.63;;
22201;SDS011;11266;51.522;6.302;2022-10-18T07:45:17;18.85;;;13.73;;
22201;SDS011;11266;51.522;6.302;2022-10-18T07:46:03;16.30;;;12.93;;
22201;SDS011;11266;51.522;6.302;2022-10-18T07:46:50;15.40;;;11.90;;
22201;SDS011;11266;51.522;6.302;2022-10-18T07:47:35;13.55;;;10.73;;
22201;SDS011;11266;51.522;6.302;2022-10-18T07:48:22;15.18;;;11.25;;
22201;SDS011;11266;51.522;6.302;2022-10-18T07:49:08;14.57;;;10.90;;
22201;SDS011;11266;51.522;6.302;2022-10-18T07:49:53;15.95;;;12.35;;
22201;SDS011;11266;51.522;6.302;2022-10-18T07:50:39;16.42;;;13.05;;
22201;SDS011;11266;51.522;6.302;2022-10-18T07:51:25;15.68;;;12.27;;
22201;SDS011;11266;51.522;6.302;2022-10-18T07:52:12;15.18;;;11.27;;
22201;SDS011;11266;51.522;6.302;2022-10-18T07:52:58;15.15;;;11.18;;
22201;SDS011;11266;51.522;6.302;2022-10-18T07:53:44;14.00;;;10.68;;
22201;SDS011;11266;51.522;6.302;2022-10-18T07:54:30;12.70;;;10.43;;
22201;SDS011;11266;51.522;6.302;2022-10-18T07:55:16;13.98;;;10.88;;
22201;SDS011;11266;51.522;6.302;2022-10-18T07:56:03;13.52;;;10.75;;
22201;SDS011;11266;51.522;6.302;2022-10-18T07:56:49;14.95;;;11.48;;
22201;SDS011;11266;51.522;6.302;2022-10-18T07:57:35;15.75;;;11.48;;
22201;SDS011;11266;51.522;6.302;2022-10-18T07:58:21;14.85;;;11.57;;
22201;SDS011;11266;51.522;6.302;2022-10-18T07:59:07;15.60;;;11.48;;
22201;SDS011;11266;51.522;6.302;2022-10-18T07:59:55;17.80;;;11.30;;
22201;SDS011;11266;51.522;6.302;2022-10-18T08:00:41;14.20;;;10.95;;
22201;SDS011;11266;51.522;6.302;2022-10-18T08:01:29;16.40;;;12.35;;
22201;SDS011;11266;51.522;6.302;2022-10-18T08:02:15;17.02;;;12.73;;
22201;SDS011;11266;51.522;6.302;2022-10-18T08:03:01;14.02;;;11.15;;
22201;SDS011;11266;51.522;6.302;2022-10-18T08:03:47;17.30;;;11.10;;
22201;SDS011;11266;51.522;6.302;2022-10-18T08:04:34;15.45;;;10.48;;
22201;SDS011;11266;51.522;6.302;2022-10-18T08:05:22;14.70;;;11.60;;
22201;SDS011;11266;51.522;6.302;2022-10-18T08:06:09;14.15;;;11.27;;
22201;SDS011;11266;51.522;6.302;2022-10-18T08:06:55;14.40;;;10.90;;
22201;SDS011;11266;51.522;6.302;2022-10-18T08:07:41;11.35;;;9.65;;
22201;SDS011;11266;51.522;6.302;2022-10-18T08:08:27;14.02;;;10.85;;
22201;SDS011;11266;51.522;6.302;2022-10-18T08:09:13;14.90;;;10.40;;
22201;SDS011;11266;51.522;6.302;2022-10-18T08:10:00;16.67;;;10.85;;
22201;SDS011;11266;51.522;6.302;2022-10-18T08:10:46;11.88;;;9.88;;
22201;SDS011;11266;51.522;6.302;2022-10-18T08:11:32;12.88;;;10.45;;
22201;SDS011;11266;51.522;6.302;2022-10-18T08:12:18;11.13;;;9.45;;
22201;SDS011;11266;51.522;6.302;2022-10-18T08:13:04;16.35;;;10.60;;
22201;SDS011;11266;51.522;6.302;2022-10-18T08:13:50;14.43;;;10.90;;
22201;SDS011;11266;51.522;6.302;2022-10-18T08:14:36;15.07;;;10.45;;
22201;SDS011;11266;51.522;6.302;2022-10-18T08:15:25;12.75;;;10.07;;
22201;SDS011;11266;51.522;6.302;2022-10-18T08:16:12;13.65;;;10.65;;
22201;SDS011;11266;51.522;6.302;2022-10-18T08:16:58;14.23;;;11.32;;
22201;SDS011;11266;51.522;6.302;2022-10-18T08:17:44;16.25;;;12.60;;
22201;SDS011;11266;51.522;6.302;2022-10-18T08:18:30;12.98;;;10.45;;
22201;SDS011;11266;51.522;6.302;2022-10-18T08:19:18;14.07;;;11.30;;
22201;SDS011;11266;51.522;6.302;2022-10-18T08:20:04;13.75;;;10.77;;
22201;SDS011;11266;51.522;6.302;2022-10-18T08:20:50;15.77;;;12.20;;
22201;SDS011;11266;51.522;6.302;2022-10-18T08:21:36;14.40;;;11.88;;
22201;SDS011;11266;51.522;6.302;2022-10-18T08:22:22;16.13;;;12.13;;
22201;SDS011;11266;51.522;6.302;2022-10-18T08:23:08;15.73;;;12.65;;
22201;SDS011;11266;51.522;6.302;2022-10-18T08:23:54;15.70;;;12.52;;
22201;SDS011;11266;51.522;6.302;2022-10-18T08:24:40;17.00;;;12.18;;
22201;SDS011;11266;51.522;6.302;2022-10-18T08:25:27;15.43;;;12.20;;
22201;SDS011;11266;51.522;6.302;2022-10-18T08:26:14;18.60;;;13.18;;
22201;SDS011;11266;51.522;6.302;2022-10-18T08:27:00;17.08;;;12.57;;
22201;SDS011;11266;51.522;6.302;2022-10-18T08:27:47;17.60;;;12.60;;
22201;SDS011;11266;51.522;6.302;2022-10-18T08:28:33;16.25;;;12.10;;
22201;SDS011;11266;51.522;6.302;2022-10-18T08:29:21;15.80;;;12.60;;
22201;SDS011;11266;51.522;6.302;2022-10-18T08:30:07;19.10;;;12.23;;
22201;SDS011;11266;51.522;6.302;2022-10-18T08:30:53;14.85;;;11.85;;
22201;SDS011;11266;51.522;6.302;2022-10-18T08:31:39;17.92;;;12.73;;
22201;SDS011;11266;51.522;6.302;2022-10-18T08:32:25;17.77;;;12.40;;
22201;SDS011;11266;51.522;6.302;2022-10-18T08:33:12;15.77;;;11.25;;
22201;SDS011;11266;51.522;6.302;2022-10-18T08:33:58;16.50;;;11.77;;
22201;SDS011;11266;51.522;6.302;2022-10-18T08:34:44;18.42;;;13.38;;
22201;SDS011;11266;51.522;6.302;2022-10-18T08:35:32;17.05;;;12.82;;
22201;SDS011;11266;51.522;6.302;2022-10-18T08:36:18;16.70;;;12.05;;
22201;SDS011;11266;51.522;6.302;2022-10-18T08:37:04;18.17;;;13.05;;
22201;SDS011;11266;51.522;6.302;2022-10-18T08:37:50;19.13;;;14.02;;
22201;SDS011;11266;51.522;6.302;2022-10-18T08:38:37;19.63;;;13.13;;
22201;SDS011;11266;51.522;6.302;2022-10-18T08:39:23;18.30;;;13.38;;
22201;SDS011;11266;51.522;6.302;2022-10-18T08:40:11;18.05;;;12.18;;
22201;SDS011;11266;51.522;6.302;2022-10-18T08:41:05;25.98;;;15.55;;
22201;SDS011;11266;51.522;6.302;2022-10-18T08:43:02;21.20;;;15.07;;
22201;SDS011;11266;51.522;6.302;2022-10-18T08:44:44;22.15;;;13.82;;
22201;SDS011;11266;51.522;6.302;2022-10-18T08:45:33;21.83;;;14.93;;
22201;SDS011;11266;51.522;6.302;2022-10-18T08:46:21;19.67;;;14.18;;
22201;SDS011;11266;51.522;6.302;2022-10-18T08:47:14;21.33;;;15.82;;
22201;SDS011;11266;51.522;6.302;2022-10-18T08:48:01;23.45;;;15.85;;
22201;SDS011;11266;51.522;6.302;2022-10-18T08:48:49;19.38;;;13.80;;
22201;SDS011;11266;51.522;6.302;2022-10-18T08:49:40;19.90;;;14.00;;
22201;SDS011;11266;51.522;6.302;2022-10-18T08:50:32;20.10;;;14.23;;
22201;SDS011;11266;51.522;6.302;2022-10-18T08:51:26;16.70;;;12.57;;
22201;SDS011;11266;51.522;6.302;2022-10-18T08:52:17;17.67;;;13.05;;
22201;SDS011;11266;51.522;6.302;2022-10-18T08:53:11;19.10;;;13.50;;
22201;SDS011;11266;51.522;6.302;2022-10-18T08:54:01;20.13;;;13.38;;
22201;SDS011;11266;51.522;6.302;2022-10-18T08:54:59;18.85;;;13.45;;
22201;SDS011;11266;51.522;6.302;2022-10-18T08:55:49;20.25;;;13.95;;
22201;SDS011;11266;51.522;6.302;2022-10-18T08:56:37;18.40;;;12.45;;
22201;SDS011;11266;51.522;6.302;2022-10-18T08:57:24;20.55;;;14.35;;
22201;SDS011;11266;51.522;6.302;2022-10-18T08:58:43;19.95;;;14.15;;
22201;SDS011;11266;51.522;6.302;2022-10-18T08:59:22;22.77;;;14.10;;
22201;SDS011;11266;51.522;6.302;2022-10-18T09:00:15;19.15;;;13.35;;
22201;SDS011;11266;51.522;6.302;2022-10-18T09:01:06;22.98;;;15.45;;
22201;SDS011;11266;51.522;6.302;2022-10-18T09:02:01;24.75;;;15.43;;
22201;SDS011;11266;51.522;6.302;2022-10-18T09:06:30;26.98;;;14.90;;
22201;SDS011;11266;51.522;6.302;2022-10-18T09:09:15;24.05;;;15.32;;
22201;SDS011;11266;51.522;6.302;2022-10-18T09:16:20;22.30;;;14.60;;
22201;SDS011;11266;51.522;6.302;2022-10-18T09:20:59;21.35;;;14.63;;
22201;SDS011;11266;51.522;6.302;2022-10-18T09:21:55;25.55;;;15.43;;
22201;SDS011;11266;51.522;6.302;2022-10-18T09:23:45;24.70;;;15.15;;
22201;SDS011;11266;51.522;6.302;2022-10-18T09:24:37;24.58;;;15.48;;
22201;SDS011;11266;51.522;6.302;2022-10-18T09:25:24;27.40;;;15.98;;
22201;SDS011;11266;51.522;6.302;2022-10-18T09:26:20;25.58;;;15.25;;
22201;SDS011;11266;51.522;6.302;2022-10-18T09:27:14;31.58;;;17.30;;
22201;SDS011;11266;51.522;6.302;2022-10-18T09:29:55;29.40;;;16.42;;
22201;SDS011;11266;51.522;6.302;2022-10-18T09:30:51;26.30;;;16.40;;
22201;SDS011;11266;51.522;6.302;2022-10-18T09:34:21;25.17;;;15.85;;
22201;SDS011;11266;51.522;6.302;2022-10-18T09:35:56;23.58;;;14.32;;
22201;SDS011;11266;51.522;6.302;2022-10-18T09:36:43;22.63;;;14.95;;
22201;SDS011;11266;51.522;6.302;2022-10-18T09:37:31;26.60;;;15.45;;
22201;SDS011;11266;51.522;6.302;2022-10-18T09:38:18;26.88;;;16.15;;
22201;SDS011;11266;51.522;6.302;2022-10-18T09:39:13;23.35;;;14.48;;
22201;SDS011;11266;51.522;6.302;2022-10-18T09:40:22;21.23;;;13.70;;
22201;SDS011;11266;51.522;6.302;2022-10-18T09:41:07;23.50;;;13.95;;
22201;SDS011;11266;51.522;6.302;2022-10-18T09:43:09;26.58;;;15.20;;
22201;SDS011;11266;51.522;6.302;2022-10-18T09:43:57;27.98;;;15.57;;
22201;SDS011;11266;51.522;6.302;2022-10-18T09:44:50;27.15;;;15.30;;
22201;SDS011;11266;51.522;6.302;2022-10-18T09:45:38;27.10;;;15.60;;
22201;SDS011;11266;51.522;6.302;2022-10-18T09:46:32;24.92;;;14.85;;
22201;SDS011;11266;51.522;6.302;2022-10-18T09:47:26;26.00;;;14.88;;
22201;SDS011;11266;51.522;6.302;2022-10-18T09:48:28;29.48;;;15.30;;
22201;SDS011;11266;51.522;6.302;2022-10-18T09:50:02;27.58;;;15.20;;
22201;SDS011;11266;51.522;6.302;2022-10-18T09:51:01;28.40;;;13.80;;
22201;SDS011;11266;51.522;6.302;2022-10-18T09:51:48;24.55;;;14.25;;
22201;SDS011;11266;51.522;6.302;2022-10-18T09:52:36;26.00;;;14.98;;
22201;SDS011;11266;51.522;6.302;2022-10-18T09:55:00;21.70;;;13.50;;
22201;SDS011;11266;51.522;6.302;2022-10-18T09:55:58;22.98;;;14.15;;
22201;SDS011;11266;51.522;6.302;2022-10-18T09:57:36;23.65;;;13.82;;
22201;SDS011;11266;51.522;6.302;2022-10-18T09:58:24;22.67;;;12.60;;
22201;SDS011;11266;51.522;6.302;2022-10-18T09:59:33;19.77;;;11.65;;
22201;SDS011;11266;51.522;6.302;2022-10-18T10:00:20;21.75;;;12.88;;
22201;SDS011;11266;51.522;6.302;2022-10-18T16:02:02;4.55;;;1.40;;
22201;SDS011;11266;51.522;6.302;2022-10-18T16:02:48;5.10;;;1.60;;
22201;SDS011;11266;51.522;6.302;2022-10-18T16:03:34;4.35;;;1.35;;
22201;SDS011;11266;51.522;6.302;2022-10-18T16:04:27;5.10;;;1.30;;
22201;SDS011;11266;51.522;6.302;2022-10-18T16:05:14;7.90;;;1.73;;
22201;SDS011;11266;51.522;6.302;2022-10-18T16:06:06;2.33;;;0.90;;
22201;SDS011;11266;51.522;6.302;2022-10-18T16:06:52;4.70;;;1.50;;
22201;SDS011;11266;51.522;6.302;2022-10-18T16:07:39;3.75;;;1.38;;
22201;SDS011;11266;51.522;6.302;2022-10-18T16:08:26;3.17;;;1.10;;
22201;SDS011;11266;51.522;6.302;2022-10-18T16:09:17;5.28;;;1.38;;
22201;SDS011;11266;51.522;6.302;2022-10-18T16:10:10;5.57;;;1.65;;
22201;SDS011;11266;51.522;6.302;2022-10-18T16:10:59;4.13;;;1.00;;
22201;SDS011;11266;51.522;6.302;2022-10-18T16:11:45;3.33;;;1.20;;
22201;SDS011;11266;51.522;6.302;2022-10-18T16:12:33;3.95;;;1.33;;
22201;SDS011;11266;51.522;6.302;2022-10-18T16:13:19;3.63;;;1.33;;
22201;SDS011;11266;51.522;6.302;2022-10-18T16:14:05;3.85;;;1.15;;
22201;SDS011;11266;51.522;6.302;2022-10-18T16:14:51;4.28;;;1.30;;
22201;SDS011;11266;51.522;6.302;2022-10-18T16:15:37;4.57;;;1.30;;
22201;SDS011;11266;51.522;6.302;2022-10-18T16:16:24;3.78;;;1.38;;
22201;SDS011;11266;51.522;6.302;2022-10-18T16:17:10;3.63;;;1.45;;
22201;SDS011;11266;51.522;6.302;2022-10-18T16:18:00;2.92;;;1.33;;
22201;SDS011;11266;51.522;6.302;2022-10-18T16:18:46;4.97;;;1.60;;
22201;SDS011;11266;51.522;6.302;2022-10-18T16:19:32;4.15;;;1.42;;
22201;SDS011;11266;51.522;6.302;2022-10-18T16:20:19;4.38;;;1.77;;
22201;SDS011;11266;51.522;6.302;2022-10-18T16:21:09;7.10;;;2.00;;
22201;SDS011;11266;51.522;6.302;2022-10-18T16:22:00;4.63;;;1.35;;
22201;SDS011;11266;51.522;6.302;2022-10-18T16:22:46;5.28;;;1.60;;
22201;SDS011;11266;51.522;6.302;2022-10-18T16:23:32;3.92;;;1.63;;
22201;SDS011;11266;51.522;6.302;2022-10-18T16:24:18;4.07;;;1.67;;
22201;SDS011;11266;51.522;6.302;2022-10-18T16:25:07;6.05;;;1.73;;
22201;SDS011;11266;51.522;6.302;2022-10-18T16:25:53;4.47;;;1.60;;
22201;SDS011;11266;51.522;6.302;2022-10-18T16:26:39;4.78;;;1.60;;
22201;SDS011;11266;51.522;6.302;2022-10-18T16:27:25;3.30;;;1.65;;
22201;SDS011;11266;51.522;6.302;2022-10-18T16:28:12;8.23;;;2.45;;
22201;SDS011;11266;51.522;6.302;2022-10-18T16:28:58;7.03;;;2.60;;
22201;SDS011;11266;51.522;6.302;2022-10-18T16:29:44;6.05;;;2.47;;
22201;SDS011;11266;51.522;6.302;2022-10-18T16:30:30;7.28;;;2.63;;
22201;SDS011;11266;51.522;6.302;2022-10-18T16:31:18;9.27;;;3.33;;
22201;SDS011;11266;51.522;6.302;2022-10-18T16:32:05;7.10;;;3.25;;
22201;SDS011;11266;51.522;6.302;2022-10-18T16:32:51;6.88;;;3.58;;
22201;SDS011;11266;51.522;6.302;2022-10-18T16:33:37;6.75;;;3.75;;
22201;SDS011;11266;51.522;6.302;2022-10-18T16:34:23;7.93;;;4.00;;
22201;SDS011;11266;51.522;6.302;2022-10-18T16:35:10;7.40;;;4.20;;
22201;SDS011;11266;51.522;6.302;2022-10-18T16:35:57;9.88;;;5.30;;
22201;SDS011;11266;51.522;6.302;2022-10-18T16:36:43;10.75;;;4.97;;
22201;SDS011;11266;51.522;6.302;2022-10-18T16:37:30;8.20;;;4.13;;
22201;SDS011;11266;51.522;6.302;2022-10-18T16:38:36;11.60;;;4.63;;
22201;SDS011;11266;51.522;6.302;2022-10-18T16:39:22;10.57;;;4.47;;
22201;SDS011;11266;51.522;6.302;2022-10-18T16:41:04;8.23;;;4.40;;
22201;SDS011;11266;51.522;6.302;2022-10-18T16:41:50;7.90;;;4.45;;
22201;SDS011;11266;51.522;6.302;2022-10-18T16:42:36;7.32;;;3.72;;
22201;SDS011;11266;51.522;6.302;2022-10-18T16:43:22;6.07;;;3.90;;
22201;SDS011;11266;51.522;6.302;2022-10-18T16:44:08;7.05;;;3.53;;
22201;SDS011;11266;51.522;6.302;2022-10-18T16:44:54;9.25;;;4.25;;
22201;SDS011;11266;51.522;6.302;2022-10-18T16:45:42;7.25;;;3.70;;
22201;SDS011;11266;51.522;6.302;2022-10-18T16:46:29;7.18;;;3.42;;
22201;SDS011;11266;51.522;6.302;2022-10-18T16:47:16;5.32;;;2.97;;
22201;SDS011;11266;51.522;6.302;2022-10-18T16:48:02;9.35;;;3.83;;
22201;SDS011;11266;51.522;6.302;2022-10-18T16:48:49;6.75;;;3.47;;
22201;SDS011;11266;51.522;6.302;2022-10-18T16:49:36;7.95;;;2.90;;
22201;SDS011;11266;51.522;6.302;2022-10-18T16:50:22;6.15;;;3.00;;
22201;SDS011;11266;51.522;6.302;2022-10-18T16:51:08;5.10;;;2.67;;
22201;SDS011;11266;51.522;6.302;2022-10-18T16:51:54;7.13;;;3.10;;
22201;SDS011;11266;51.522;6.302;2022-10-18T16:52:40;4.85;;;2.60;;
22201;SDS011;11266;51.522;6.302;2022-10-18T16:53:26;7.25;;;3.20;;
22201;SDS011;11266;51.522;6.302;2022-10-18T16:54:12;5.55;;;3.03;;
22201;SDS011;11266;51.522;6.302;2022-10-18T16:54:59;5.85;;;2.67;;
22201;SDS011;11266;51.522;6.302;2022-10-18T16:55:49;6.65;;;3.03;;
22201;SDS011;11266;51.522;6.302;2022-10-18T16:56:36;6.15;;;2.50;;
22201;SDS011;11266;51.522;6.302;2022-10-18T16:57:22;4.88;;;2.60;;
22201;SDS011;11266;51.522;6.302;2022-10-18T16:58:13;5.43;;;2.17;;
22201;SDS011;11266;51.522;6.302;2022-10-18T16:59:03;6.50;;;2.53;;
22201;SDS011;11266;51.522;6.302;2022-10-18T16:59:49;4.68;;;2.20;;
22201;SDS011;11266;51.522;6.302;2022-10-18T17:00:35;5.18;;;2.30;;
22201;SDS011;11266;51.522;6.302;2022-10-18T17:01:22;4.45;;;1.73;;
22201;SDS011;11266;51.522;6.302;2022-10-18T17:02:09;5.28;;;2.20;;
22201;SDS011;11266;51.522;6.302;2022-10-18T17:02:56;6.13;;;2.13;;
22201;SDS011;11266;51.522;6.302;2022-10-18T17:03:42;6.78;;;2.95;;
22201;SDS011;11266;51.522;6.302;2022-10-18T17:04:28;4.95;;;2.03;;
22201;SDS011;11266;51.522;6.302;2022-10-18T17:05:14;5.53;;;1.70;;
22201;SDS011;11266;51.522;6.302;2022-10-18T17:06:01;6.13;;;2.47;;
22201;SDS011;11266;51.522;6.302;2022-10-18T17:06:47;5.57;;;2.22;;
22201;SDS011;11266;51.522;6.302;2022-10-18T17:07:33;7.68;;;2.55;;
22201;SDS011;11266;51.522;6.302;2022-10-18T17:08:23;6.88;;;1.98;;
22201;SDS011;11266;51.522;6.302;2022-10-18T17:09:10;6.35;;;2.10;;
22201;SDS011;11266;51.522;6.302;2022-10-18T17:09:57;5.93;;;2.35;;
22201;SDS011;11266;51.522;6.302;2022-10-18T17:10:44;5.53;;;2.20;;
22201;SDS011;11266;51.522;6.302;2022-10-18T17:11:30;5.70;;;2.28;;
22201;SDS011;11266;51.522;6.302;2022-10-18T17:12:18;4.82;;;2.15;;
22201;SDS011;11266;51.522;6.302;2022-10-18T17:13:04;5.75;;;2.20;;
22201;SDS011;11266;51.522;6.302;2022-10-18T17:13:50;4.13;;;2.10;;
22201;SDS011;11266;51.522;6.302;2022-10-18T17:14:39;3.60;;;1.83;;
22201;SDS011;11266;51.522;6.302;2022-10-18T17:15:25;5.75;;;2.20;;
22201;SDS011;11266;51.522;6.302;2022-10-18T17:16:27;5.53;;;2.22;;
22201;SDS011;11266;51.522;6.302;2022-10-18T17:17:13;4.15;;;2.10;;
22201;SDS011;11266;51.522;6.302;2022-10-18T17:17:59;9.25;;;2.65;;
22201;SDS011;11266;51.522;6.302;2022-10-18T17:18:47;6.47;;;2.55;;
22201;SDS011;11266;51.522;6.302;2022-10-18T17:19:33;6.40;;;2.58;;
22201;SDS011;11266;51.522;6.302;2022-10-18T17:20:20;5.50;;;2.55;;
22201;SDS011;11266;51.522;6.302;2022-10-18T17:21:07;5.63;;;2.30;;
22201;SDS011;11266;51.522;6.302;2022-10-18T17:21:56;6.32;;;2.40;;
22201;SDS011;11266;51.522;6.302;2022-10-18T17:22:42;5.35;;;2.35;;
22201;SDS011;11266;51.522;6.302;2022-10-18T17:23:28;7.03;;;2.63;;
22201;SDS011;11266;51.522;6.302;2022-10-18T17:24:14;6.97;;;2.63;;
22201;SDS011;11266;51.522;6.302;2022-10-18T17:25:00;4.93;;;2.30;;
22201;SDS011;11266;51.522;6.302;2022-10-18T17:25:46;6.75;;;2.60;;
22201;SDS011;11266;51.522;6.302;2022-10-18T17:26:33;5.78;;;2.42;;
22201;SDS011;11266;51.522;6.302;2022-10-18T17:27:19;5.32;;;2.50;;
22201;SDS011;11266;51.522;6.302;2022-10-18T17:28:05;5.30;;;2.50;;
22201;SDS011;11266;51.522;6.302;2022-10-18T17:28:52;5.47;;;2.33;;
22201;SDS011;11266;51.522;6.302;2022-10-18T17:29:38;6.10;;;2.58;;
22201;SDS011;11266;51.522;6.302;2022-10-18T17:30:25;6.07;;;2.70;;
22201;SDS011;11266;51.522;6.302;2022-10-18T17:31:11;5.18;;;2.40;;
22201;SDS011;11266;51.522;6.302;2022-10-18T17:31:59;7.40;;;2.75;;
22201;SDS011;11266;51.522;6.302;2022-10-18T17:32:45;4.85;;;2.40;;
22201;SDS011;11266;51.522;6.302;2022-10-18T17:33:31;5.32;;;2.78;;
22201;SDS011;11266;51.522;6.302;2022-10-18T17:34:19;9.68;;;2.55;;